createdAt,value
2017-11-19T00:01:26.531Z,10.02
2017-11-19T00:03:54.623Z,12.23
2017-11-19T00:06:22.704Z,10.80
2017-11-19T00:08:51.540Z,10.75
2017-11-19T00:11:19.615Z,9.95
2017-11-19T00:13:47.691Z,10.20
2017-11-19T00:16:15.788Z,10.40
2017-11-19T00:18:43.968Z,10.82
2017-11-19T00:21:12.061Z,9.48
2017-11-19T00:23:40.892Z,9.38
2017-11-19T00:26:08.965Z,8.02
2017-11-19T00:31:05.331Z,8.10
2017-11-19T00:33:33.804Z,9.95
2017-11-19T00:36:02.258Z,9.20
2017-11-19T00:38:30.323Z,9.55
2017-11-19T00:40:58.411Z,8.90
2017-11-19T00:43:28.256Z,8.57
2017-11-19T00:45:56.316Z,9.15
2017-11-19T00:48:24.396Z,7.85
2017-11-19T00:50:52.853Z,9.10
2017-11-19T00:53:20.923Z,8.35
2017-11-19T00:55:49.013Z,8.07
2017-11-19T00:58:17.474Z,9.43
2017-11-19T01:00:46.329Z,9.40
2017-11-19T01:03:14.381Z,8.02
2017-11-19T01:05:42.485Z,8.68
2017-11-19T01:08:11.315Z,8.60
2017-11-19T01:10:39.401Z,8.48
2017-11-19T01:13:07.464Z,8.55
2017-11-19T01:15:35.529Z,8.05
2017-11-19T01:18:03.595Z,9.23
2017-11-19T01:20:31.674Z,8.55
2017-11-19T01:22:59.719Z,8.63
2017-11-19T01:25:27.792Z,9.23
2017-11-19T01:27:55.851Z,8.73
2017-11-19T01:30:24.691Z,8.60
2017-11-19T01:32:52.743Z,8.13
2017-11-19T01:35:21.788Z,9.23
2017-11-19T01:37:49.827Z,8.77
2017-11-19T01:47:41.958Z,9.23
2017-11-19T01:50:10.805Z,8.95
2017-11-19T01:52:38.898Z,8.63
2017-11-19T01:55:06.945Z,8.02
2017-11-19T02:02:31.798Z,7.40
2017-11-19T02:04:59.879Z,8.90
2017-11-19T02:07:27.933Z,9.52
2017-11-19T02:09:56.001Z,8.80
2017-11-19T02:12:24.074Z,8.63
2017-11-19T02:14:52.146Z,9.07
2017-11-19T02:17:20.208Z,7.90
2017-11-19T02:19:48.271Z,7.12
2017-11-19T02:22:16.349Z,8.25
2017-11-19T02:24:45.222Z,8.60
2017-11-19T02:27:13.672Z,7.15
2017-11-19T02:29:42.495Z,8.13
2017-11-19T02:32:10.586Z,7.68
2017-11-19T02:34:40.317Z,8.50
2017-11-19T02:37:08.382Z,9.07
2017-11-19T02:42:04.067Z,8.25
2017-11-19T02:44:32.137Z,8.32
2017-11-19T02:47:00.187Z,8.52
2017-11-19T02:49:29.036Z,8.73
2017-11-19T02:51:57.089Z,8.93
2017-11-19T02:54:25.160Z,8.82
2017-11-19T02:56:53.225Z,8.73
2017-11-19T02:59:22.051Z,9.57
2017-11-19T03:01:50.124Z,8.90
2017-11-19T03:04:18.589Z,8.63
2017-11-19T03:06:46.661Z,8.50
2017-11-19T03:09:14.731Z,8.32
2017-11-19T03:11:42.789Z,8.77
2017-11-19T03:14:10.875Z,8.85
2017-11-19T03:19:13.353Z,6.95
2017-11-19T03:21:41.415Z,8.70
2017-11-19T03:24:09.467Z,7.50
2017-11-19T03:26:37.532Z,7.72
2017-11-19T03:29:06.347Z,6.55
2017-11-19T03:31:34.412Z,5.87
2017-11-19T03:34:02.489Z,5.45
2017-11-19T03:36:30.535Z,5.12
2017-11-19T03:38:58.583Z,4.68
2017-11-19T03:41:26.669Z,4.45
2017-11-19T03:46:22.631Z,4.43
2017-11-19T03:48:50.713Z,3.45
2017-11-19T03:51:19.537Z,3.50
2017-11-19T03:53:48.364Z,2.28
2017-11-19T03:56:17.205Z,2.47
2017-11-19T03:58:45.264Z,2.83
2017-11-19T04:01:13.320Z,2.20
2017-11-19T04:03:41.375Z,1.92
2017-11-19T04:06:10.210Z,1.70
2017-11-19T04:08:38.271Z,1.40
2017-11-19T04:11:06.334Z,1.75
2017-11-19T04:13:34.403Z,1.50
2017-11-19T04:16:02.448Z,1.30
2017-11-19T04:18:31.291Z,1.10
2017-11-19T04:21:00.112Z,0.90
2017-11-19T04:23:28.156Z,1.10
2017-11-19T04:25:56.236Z,1.30
2017-11-19T04:28:24.296Z,1.00
2017-11-19T04:30:52.346Z,1.30
2017-11-19T04:33:20.411Z,1.02
2017-11-19T04:35:48.474Z,1.40
2017-11-19T04:38:17.347Z,1.67
2017-11-19T04:40:46.164Z,1.45
2017-11-19T04:43:14.219Z,1.20
2017-11-19T04:45:42.300Z,2.12
2017-11-19T04:48:10.380Z,1.42
2017-11-19T04:50:38.431Z,1.27
2017-11-19T04:53:07.244Z,1.20
2017-11-19T04:55:35.311Z,1.58
2017-11-19T04:58:03.379Z,1.62
2017-11-19T05:00:31.443Z,1.23
2017-11-19T05:02:59.891Z,1.10
2017-11-19T05:05:28.000Z,1.67
2017-11-19T05:07:56.802Z,1.37
2017-11-19T05:10:24.850Z,2.25
2017-11-19T05:12:52.915Z,1.10
2017-11-19T05:15:21.743Z,1.70
2017-11-19T05:17:49.812Z,1.40
2017-11-19T05:20:18.274Z,1.35
2017-11-19T05:22:46.768Z,2.40
2017-11-19T05:25:14.836Z,1.70
2017-11-19T05:27:42.912Z,1.90
2017-11-19T05:30:10.973Z,1.70
2017-11-19T05:32:39.017Z,2.42
2017-11-19T05:35:07.889Z,1.67
2017-11-19T05:37:35.907Z,1.30
2017-11-19T05:40:03.965Z,2.03
2017-11-19T05:42:32.798Z,2.47
2017-11-19T05:47:35.999Z,1.80
2017-11-19T05:50:04.057Z,1.85
2017-11-19T05:52:32.535Z,2.15
2017-11-19T05:55:00.592Z,1.87
2017-11-19T05:57:28.664Z,2.25
2017-11-19T05:59:57.511Z,1.90
2017-11-19T06:02:26.321Z,2.60
2017-11-19T06:04:55.163Z,2.80
2017-11-19T06:07:23.987Z,2.37
2017-11-19T06:09:52.067Z,3.15
2017-11-19T06:12:20.120Z,3.37
2017-11-19T06:14:48.183Z,3.00
2017-11-19T06:17:16.235Z,2.80
2017-11-19T06:19:44.309Z,3.30
2017-11-19T06:22:12.370Z,3.40
2017-11-19T06:24:41.203Z,2.85
2017-11-19T06:27:10.028Z,2.55
2017-11-19T06:29:38.498Z,2.90
2017-11-19T06:32:06.561Z,2.83
2017-11-19T06:34:34.609Z,2.65
2017-11-19T06:37:03.443Z,2.97
2017-11-19T06:39:31.925Z,2.55
2017-11-19T06:42:00.767Z,3.05
2017-11-19T06:44:28.827Z,3.35
2017-11-19T06:46:57.304Z,2.60
2017-11-19T06:49:25.754Z,2.80
2017-11-19T06:51:53.818Z,3.20
2017-11-19T06:54:21.878Z,2.33
2017-11-19T06:56:50.697Z,3.72
2017-11-19T06:59:19.160Z,2.72
2017-11-19T07:01:47.235Z,3.10
2017-11-19T07:04:15.289Z,3.22
2017-11-19T07:06:44.119Z,4.37
2017-11-19T07:09:12.202Z,4.03
2017-11-19T07:11:41.156Z,6.03
2017-11-19T07:14:09.217Z,5.15
2017-11-19T07:16:37.299Z,4.30
2017-11-19T07:19:05.353Z,5.45
2017-11-19T07:21:34.213Z,4.35
2017-11-19T07:24:02.284Z,4.35
2017-11-19T07:26:30.362Z,4.30
2017-11-19T07:28:58.416Z,5.20
2017-11-19T07:31:26.484Z,4.05
2017-11-19T07:33:54.553Z,4.60
2017-11-19T07:36:22.620Z,4.00
2017-11-19T07:38:50.687Z,4.85
2017-11-19T07:41:19.520Z,4.50
2017-11-19T07:43:47.576Z,5.40
2017-11-19T07:46:15.653Z,5.20
2017-11-19T07:48:43.743Z,5.53
2017-11-19T07:51:11.807Z,6.68
2017-11-19T07:53:39.875Z,5.75
2017-11-19T07:56:07.932Z,4.95
2017-11-19T07:58:36.275Z,4.70
2017-11-19T08:01:04.367Z,4.47
2017-11-19T08:03:32.424Z,5.47
2017-11-19T08:06:00.479Z,5.07
2017-11-19T08:08:28.547Z,5.22
2017-11-19T08:10:56.599Z,6.75
2017-11-19T08:13:25.437Z,6.28
2017-11-19T08:15:53.531Z,7.20
2017-11-19T08:18:21.587Z,7.10
2017-11-19T08:20:49.653Z,5.78
2017-11-19T08:23:17.787Z,5.90
2017-11-19T08:25:46.227Z,4.60
2017-11-19T08:28:14.690Z,5.05
2017-11-19T08:30:43.504Z,6.15
2017-11-19T08:33:11.570Z,5.47
2017-11-19T08:35:39.635Z,4.45
2017-11-19T08:38:07.684Z,4.18
2017-11-19T08:40:35.742Z,3.60
2017-11-19T08:43:03.783Z,4.20
2017-11-19T08:45:33.352Z,2.78
2017-11-19T08:48:01.400Z,3.55
2017-11-19T08:50:29.462Z,3.17
2017-11-19T08:52:57.537Z,2.92
2017-11-19T08:55:25.580Z,3.10
2017-11-19T08:57:54.391Z,3.65
2017-11-19T09:00:22.459Z,2.83
2017-11-19T09:02:50.903Z,2.78
2017-11-19T09:05:18.951Z,2.53
2017-11-19T09:07:47.008Z,2.33
2017-11-19T09:10:15.063Z,2.08
2017-11-19T09:12:43.124Z,2.15
2017-11-19T09:15:11.166Z,2.12
2017-11-19T09:17:40.003Z,1.95
2017-11-19T09:20:08.061Z,3.45
2017-11-19T09:22:36.103Z,1.50
2017-11-19T09:25:04.935Z,1.77
2017-11-19T09:27:33.775Z,2.45
2017-11-19T09:30:02.604Z,2.35
2017-11-19T09:32:30.653Z,1.55
2017-11-19T09:34:59.476Z,2.85
2017-11-19T09:37:27.547Z,3.85
2017-11-19T09:39:55.598Z,1.70
2017-11-19T09:42:23.660Z,2.37
2017-11-19T09:44:52.497Z,2.00
2017-11-19T09:47:21.308Z,1.70
2017-11-19T09:49:50.121Z,2.40
2017-11-19T09:52:18.591Z,1.70
2017-11-19T09:54:47.403Z,2.03
2017-11-19T09:57:15.448Z,2.20
2017-11-19T09:59:43.508Z,1.85
2017-11-19T10:02:11.560Z,2.03
2017-11-19T10:04:39.614Z,2.87
2017-11-19T10:07:07.668Z,3.90
2017-11-19T10:09:35.723Z,3.60
2017-11-19T10:12:04.535Z,1.58
2017-11-19T10:14:32.603Z,2.30
2017-11-19T10:17:01.038Z,1.90
2017-11-19T10:19:29.083Z,3.90
2017-11-19T10:21:57.143Z,3.65
2017-11-19T10:24:25.190Z,3.00
2017-11-19T10:26:53.263Z,2.20
2017-11-19T10:29:21.315Z,2.12
2017-11-19T10:31:50.161Z,2.42
2017-11-19T10:34:19.027Z,3.20
2017-11-19T10:36:47.079Z,2.35
2017-11-19T10:39:15.151Z,3.53
2017-11-19T10:41:43.209Z,2.03
2017-11-19T10:44:12.019Z,2.67
2017-11-19T10:46:40.487Z,2.87
2017-11-19T10:49:09.315Z,2.70
2017-11-19T10:51:37.779Z,2.25
2017-11-19T10:54:05.830Z,1.83
2017-11-19T10:56:34.642Z,2.50
2017-11-19T10:59:03.107Z,1.65
2017-11-19T11:01:31.553Z,1.65
2017-11-19T11:03:59.606Z,1.60
2017-11-19T11:06:27.668Z,1.77
2017-11-19T11:08:55.726Z,2.42
2017-11-19T11:11:24.178Z,2.15
2017-11-19T11:13:52.232Z,2.92
2017-11-19T11:16:20.303Z,1.87
2017-11-19T11:18:49.125Z,3.33
2017-11-19T11:21:17.176Z,3.42
2017-11-19T11:23:45.630Z,1.98
2017-11-19T11:26:13.699Z,1.35
2017-11-19T11:28:42.163Z,2.15
2017-11-19T11:31:10.223Z,2.03
2017-11-19T11:33:38.270Z,2.80
2017-11-19T11:36:07.103Z,1.42
2017-11-19T11:38:35.147Z,1.98
2017-11-19T11:41:03.213Z,1.67
2017-11-19T11:43:31.276Z,2.97
2017-11-19T11:45:59.327Z,1.30
2017-11-19T11:48:28.155Z,3.55
2017-11-19T11:50:56.237Z,2.83
2017-11-19T11:53:25.414Z,1.20
2017-11-19T11:55:53.498Z,1.30
2017-11-19T11:58:21.939Z,1.62
2017-11-19T12:00:50.751Z,4.60
2017-11-19T12:03:18.827Z,2.12
2017-11-19T12:05:46.875Z,2.00
2017-11-19T12:08:15.691Z,2.33
2017-11-19T12:10:43.747Z,2.08
2017-11-19T12:13:11.823Z,1.80
2017-11-19T12:15:39.975Z,2.45
2017-11-19T12:18:08.419Z,1.98
2017-11-19T12:20:36.471Z,1.92
2017-11-19T12:23:04.527Z,1.90
2017-11-19T12:25:32.989Z,1.50
2017-11-19T12:28:01.807Z,1.65
2017-11-19T12:30:29.868Z,1.73
2017-11-19T12:32:57.927Z,1.80
2017-11-19T12:35:26.755Z,1.95
2017-11-19T12:37:55.335Z,1.60
2017-11-19T12:40:24.103Z,3.25
2017-11-19T12:42:52.151Z,1.95
2017-11-19T12:45:20.975Z,2.08
2017-11-19T12:47:49.421Z,1.62
2017-11-19T12:50:18.239Z,2.30
2017-11-19T12:52:46.293Z,2.12
2017-11-19T12:55:14.363Z,1.70
2017-11-19T12:57:42.416Z,2.10
2017-11-19T13:00:11.228Z,1.62
2017-11-19T13:02:39.282Z,2.45
2017-11-19T13:05:08.090Z,1.92
2017-11-19T13:07:36.153Z,1.75
2017-11-19T13:10:04.965Z,2.10
2017-11-19T13:12:33.031Z,2.17
2017-11-19T13:15:01.076Z,1.98
2017-11-19T13:17:29.887Z,1.92
2017-11-19T13:19:57.953Z,1.40
2017-11-19T13:22:26.050Z,1.65
2017-11-19T13:24:54.843Z,3.25
2017-11-19T13:27:22.883Z,2.20
2017-11-19T13:29:50.932Z,2.80
2017-11-19T13:32:19.768Z,2.08
2017-11-19T13:34:48.946Z,1.95
2017-11-19T13:37:16.990Z,1.75
2017-11-19T13:39:45.815Z,1.95
2017-11-19T13:42:13.908Z,1.83
2017-11-19T13:44:42.709Z,2.55
2017-11-19T13:47:10.772Z,2.00
2017-11-19T13:49:38.815Z,1.75
2017-11-19T13:52:06.895Z,1.60
2017-11-19T13:54:34.946Z,2.05
2017-11-19T13:57:03.750Z,1.70
2017-11-19T13:59:31.815Z,1.70
2017-11-19T14:01:59.860Z,1.20
2017-11-19T14:04:28.786Z,1.20
2017-11-19T14:06:56.819Z,1.12
2017-11-19T14:09:25.630Z,1.23
2017-11-19T14:11:53.693Z,1.25
2017-11-19T14:14:22.510Z,1.52
2017-11-19T14:16:50.963Z,2.42
2017-11-19T14:19:19.774Z,2.60
2017-11-19T14:21:47.814Z,2.10
2017-11-19T14:24:16.642Z,2.67
2017-11-19T14:26:44.687Z,2.53
2017-11-19T14:29:13.523Z,1.77
2017-11-19T14:31:41.575Z,1.77
2017-11-19T14:34:09.623Z,2.62
2017-11-19T14:36:37.683Z,2.42
2017-11-19T14:39:06.496Z,1.98
2017-11-19T14:41:34.956Z,2.17
2017-11-19T14:44:03.763Z,2.05
2017-11-19T14:46:31.827Z,2.50
2017-11-19T14:49:00.663Z,3.35
2017-11-19T14:51:28.719Z,2.90
2017-11-19T14:53:56.791Z,2.28
2017-11-19T14:56:24.851Z,2.22
2017-11-19T14:58:52.912Z,2.40
2017-11-19T15:01:20.951Z,2.67
2017-11-19T15:03:49.894Z,2.03
2017-11-19T15:06:17.935Z,2.87
2017-11-19T15:08:46.770Z,2.55
2017-11-19T15:11:15.223Z,2.78
2017-11-19T15:13:43.267Z,2.58
2017-11-19T15:16:12.079Z,1.70
2017-11-19T15:18:40.906Z,2.47
2017-11-19T15:21:09.349Z,2.42
2017-11-19T15:23:37.410Z,2.20
2017-11-19T15:26:06.858Z,2.75
2017-11-19T15:28:35.024Z,3.15
2017-11-19T15:31:03.058Z,1.90
2017-11-19T15:33:31.103Z,2.85
2017-11-19T15:35:59.162Z,3.30
2017-11-19T15:38:27.237Z,3.20
2017-11-19T15:40:55.282Z,2.15
2017-11-19T15:43:24.454Z,2.60
2017-11-19T15:45:52.504Z,2.83
2017-11-19T15:48:21.314Z,2.92
2017-11-19T15:50:49.770Z,2.55
2017-11-19T15:53:18.574Z,3.47
2017-11-19T15:55:46.683Z,4.25
2017-11-19T15:58:15.459Z,3.00
2017-11-19T16:00:43.508Z,2.67
2017-11-19T16:03:11.570Z,2.75
2017-11-19T16:05:40.384Z,3.45
2017-11-19T16:08:08.447Z,2.45
2017-11-19T16:10:36.512Z,2.85
2017-11-19T16:13:05.310Z,2.70
2017-11-19T16:15:33.385Z,2.60
2017-11-19T16:18:01.823Z,2.50
2017-11-19T16:20:29.876Z,2.90
2017-11-19T16:22:58.711Z,3.70
2017-11-19T16:25:26.758Z,3.60
2017-11-19T16:27:54.822Z,2.37
2017-11-19T16:30:22.872Z,2.67
2017-11-19T16:32:50.927Z,2.65
2017-11-19T16:35:18.973Z,1.87
2017-11-19T16:37:47.047Z,2.60
2017-11-19T16:40:15.098Z,3.85
2017-11-19T16:42:43.906Z,2.72
2017-11-19T16:45:11.955Z,3.22
2017-11-19T16:47:40.776Z,2.60
2017-11-19T16:50:08.841Z,2.20
2017-11-19T16:52:36.896Z,4.20
2017-11-19T16:55:05.708Z,2.80
2017-11-19T16:57:33.768Z,2.75
2017-11-19T17:00:02.208Z,2.83
2017-11-19T17:02:30.263Z,4.22
2017-11-19T17:04:58.317Z,3.83
2017-11-19T17:07:26.430Z,5.47
2017-11-19T17:09:54.578Z,3.72
2017-11-19T17:12:22.630Z,3.33
2017-11-19T17:14:50.698Z,3.78
2017-11-19T17:17:19.526Z,2.65
2017-11-19T17:19:47.666Z,3.80
2017-11-19T17:22:15.732Z,2.75
2017-11-19T17:24:43.810Z,2.72
2017-11-19T17:27:11.879Z,4.68
2017-11-19T17:29:39.939Z,2.50
2017-11-19T17:32:07.990Z,2.33
2017-11-19T17:34:36.860Z,3.05
2017-11-19T17:37:04.904Z,3.20
2017-11-19T17:39:32.966Z,3.30
2017-11-19T17:42:01.136Z,2.70
2017-11-19T17:44:29.178Z,2.62
2017-11-19T17:46:57.250Z,2.42
2017-11-19T17:49:25.754Z,2.75
2017-11-19T17:51:53.827Z,2.80
2017-11-19T17:54:22.307Z,3.83
2017-11-19T17:56:50.355Z,2.53
2017-11-19T17:59:19.285Z,2.78
2017-11-19T18:01:47.335Z,3.00
2017-11-19T18:04:15.412Z,2.60
2017-11-19T18:06:43.463Z,3.28
2017-11-19T18:09:12.277Z,2.92
2017-11-19T18:11:40.335Z,2.40
2017-11-19T18:14:08.379Z,2.65
2017-11-19T18:16:37.203Z,3.45
2017-11-19T18:19:05.297Z,3.20
2017-11-19T18:21:33.313Z,2.80
2017-11-19T18:24:02.127Z,4.32
2017-11-19T18:26:30.190Z,4.12
2017-11-19T18:28:58.254Z,4.68
2017-11-19T18:31:27.067Z,2.83
2017-11-19T18:33:55.111Z,3.28
2017-11-19T18:36:23.943Z,4.32
2017-11-19T18:38:51.991Z,2.97
2017-11-19T18:41:20.056Z,4.60
2017-11-19T18:43:48.114Z,3.58
2017-11-19T18:46:16.934Z,3.85
2017-11-19T18:48:45.025Z,3.80
2017-11-19T18:51:13.054Z,3.20
2017-11-19T18:53:41.862Z,2.78
2017-11-19T18:56:10.319Z,3.78
2017-11-19T18:58:39.130Z,3.05
2017-11-19T19:01:07.590Z,3.70
2017-11-19T19:03:36.402Z,4.65
2017-11-19T19:06:04.466Z,4.35
2017-11-19T19:08:32.919Z,4.75
2017-11-19T19:11:01.386Z,5.72
2017-11-19T19:13:29.432Z,3.33
2017-11-19T19:15:57.478Z,6.95
2017-11-19T19:18:25.538Z,3.70
2017-11-19T19:20:53.978Z,3.42
2017-11-19T19:23:22.038Z,3.08
2017-11-19T19:25:50.184Z,3.05
2017-11-19T19:28:18.246Z,3.45
2017-11-19T19:30:46.298Z,4.82
2017-11-19T19:33:15.122Z,4.82
2017-11-19T19:35:43.166Z,5.15
2017-11-19T19:38:11.242Z,4.60
2017-11-19T19:40:39.288Z,3.45
2017-11-19T19:43:07.330Z,3.17
2017-11-19T19:45:35.395Z,4.82
2017-11-19T19:48:04.235Z,5.20
2017-11-19T19:50:33.043Z,6.75
2017-11-19T19:53:01.090Z,3.55
2017-11-19T19:55:29.928Z,4.03
2017-11-19T19:57:58.745Z,3.90
2017-11-19T20:00:27.583Z,4.15
2017-11-19T20:02:55.626Z,3.05
2017-11-19T20:05:24.456Z,3.08
2017-11-19T20:07:52.507Z,3.15
2017-11-19T20:10:21.330Z,3.80
2017-11-19T20:12:49.382Z,3.08
2017-11-19T20:15:17.438Z,4.35
2017-11-19T20:17:46.271Z,4.03
2017-11-19T20:20:14.314Z,3.40
2017-11-19T20:22:42.358Z,3.50
2017-11-19T20:25:11.278Z,3.60
2017-11-19T20:27:39.327Z,2.70
2017-11-19T20:30:08.162Z,3.28
2017-11-19T20:32:36.207Z,3.20
2017-11-19T20:35:04.272Z,3.00
2017-11-19T20:37:32.317Z,3.03
2017-11-19T20:40:00.778Z,3.50
2017-11-19T20:42:30.346Z,3.05
2017-11-19T20:44:59.171Z,3.45
2017-11-19T20:47:27.214Z,2.85
2017-11-19T20:49:55.292Z,4.47
2017-11-19T20:52:23.334Z,3.67
2017-11-19T20:54:51.379Z,2.83
2017-11-19T20:57:20.217Z,3.85
2017-11-19T20:59:48.656Z,2.85
2017-11-19T21:02:17.464Z,3.33
2017-11-19T21:04:45.533Z,3.60
2017-11-19T21:07:13.975Z,3.40
2017-11-19T21:09:42.419Z,3.08
2017-11-19T21:12:10.477Z,3.35
2017-11-19T21:14:38.538Z,2.97
2017-11-19T21:17:06.594Z,3.80
2017-11-19T21:19:35.048Z,3.70
2017-11-19T21:22:03.098Z,8.07
2017-11-19T21:24:31.154Z,2.83
2017-11-19T21:27:00.365Z,3.92
2017-11-19T21:29:29.554Z,3.10
2017-11-19T21:31:57.610Z,3.20
2017-11-19T21:34:25.675Z,3.28
2017-11-19T21:36:53.718Z,3.80
2017-11-19T21:39:22.163Z,3.80
2017-11-19T21:41:50.222Z,3.70
2017-11-19T21:44:18.269Z,3.25
2017-11-19T21:46:46.322Z,3.70
2017-11-19T21:49:15.140Z,3.10
2017-11-19T21:51:43.196Z,3.97
2017-11-19T21:54:11.241Z,4.75
2017-11-19T21:56:39.380Z,4.50
2017-11-19T21:59:08.164Z,3.67
2017-11-19T22:01:36.207Z,4.43
2017-11-19T22:04:04.278Z,3.78
2017-11-19T22:06:33.086Z,4.05
2017-11-19T22:09:01.135Z,3.80
2017-11-19T22:11:29.191Z,3.50
2017-11-19T22:13:57.636Z,3.90
2017-11-19T22:16:25.695Z,3.70
2017-11-19T22:18:54.507Z,4.90
2017-11-19T22:21:22.575Z,4.62
2017-11-19T22:23:51.028Z,3.65
2017-11-19T22:26:19.070Z,3.50
2017-11-19T22:28:47.131Z,4.60
2017-11-19T22:31:15.938Z,3.85
2017-11-19T22:33:43.997Z,3.95
2017-11-19T22:36:12.826Z,4.93
2017-11-19T22:38:42.006Z,5.05
2017-11-19T22:41:10.066Z,5.00
2017-11-19T22:43:38.110Z,4.87
2017-11-19T22:46:06.934Z,4.20
2017-11-19T22:48:34.991Z,5.28
2017-11-19T22:51:03.047Z,4.00
2017-11-19T22:53:31.887Z,4.68
2017-11-19T22:55:59.938Z,4.40
2017-11-19T22:58:27.987Z,5.03
2017-11-19T23:00:56.815Z,4.65
2017-11-19T23:03:24.883Z,4.53
2017-11-19T23:05:53.326Z,4.95
2017-11-19T23:08:21.774Z,4.57
2017-11-19T23:10:50.236Z,4.85
2017-11-19T23:13:18.679Z,5.12
2017-11-19T23:15:46.738Z,5.22
2017-11-19T23:18:15.571Z,4.37
2017-11-19T23:20:43.614Z,4.80
2017-11-19T23:23:11.674Z,3.95
2017-11-19T23:25:40.482Z,4.18
2017-11-19T23:28:08.547Z,4.70
2017-11-19T23:30:36.591Z,3.97
2017-11-19T23:33:04.659Z,4.10
2017-11-19T23:35:32.698Z,4.00
2017-11-19T23:38:00.766Z,5.57
2017-11-19T23:40:29.210Z,5.15
2017-11-19T23:42:58.034Z,4.57
2017-11-19T23:45:26.858Z,4.85
2017-11-19T23:47:54.932Z,4.25
2017-11-19T23:50:22.979Z,4.32
2017-11-19T23:52:51.022Z,4.20
2017-11-19T23:55:19.084Z,5.20
2017-11-19T23:57:47.137Z,5.15
